createdAt,value
2017-12-21T00:00:21.707Z,42.87
2017-12-21T00:02:49.294Z,32.40
2017-12-21T00:05:16.900Z,41.97
2017-12-21T00:07:44.495Z,35.80
2017-12-21T00:10:12.080Z,36.97
2017-12-21T00:12:40.145Z,35.57
2017-12-21T00:15:07.738Z,35.33
2017-12-21T00:17:35.362Z,35.03
2017-12-21T00:20:02.960Z,32.27
2017-12-21T00:22:43.385Z,34.83
2017-12-21T00:25:11.226Z,33.97
2017-12-21T00:27:38.854Z,32.03
2017-12-21T00:30:06.425Z,28.40
2017-12-21T00:32:34.781Z,28.30
2017-12-21T00:35:02.399Z,31.90
2017-12-21T00:37:30.008Z,27.50
2017-12-21T00:39:57.589Z,24.90
2017-12-21T00:42:25.955Z,28.10
2017-12-21T00:44:53.575Z,31.73
2017-12-21T00:47:21.172Z,23.97
2017-12-21T00:49:49.363Z,28.00
2017-12-21T00:52:16.962Z,19.10
2017-12-21T00:54:44.614Z,24.23
2017-12-21T00:57:12.227Z,24.27
2017-12-21T00:59:39.815Z,26.20
2017-12-21T01:02:08.073Z,24.10
2017-12-21T01:04:35.702Z,23.90
2017-12-21T01:07:03.517Z,22.00
2017-12-21T01:09:31.116Z,36.43
2017-12-21T01:11:58.710Z,29.50
2017-12-21T01:14:26.349Z,20.00
2017-12-21T01:16:53.909Z,26.43
2017-12-21T01:19:21.499Z,22.63
2017-12-21T01:21:49.130Z,29.63
2017-12-21T01:24:16.760Z,28.17
2017-12-21T01:26:44.346Z,27.87
2017-12-21T01:29:11.914Z,22.73
2017-12-21T01:31:39.499Z,50.50
2017-12-21T01:34:07.140Z,24.23
2017-12-21T01:36:34.808Z,24.83
2017-12-21T01:39:03.314Z,20.13
2017-12-21T01:41:31.653Z,25.97
2017-12-21T01:44:00.069Z,19.43
2017-12-21T01:46:27.663Z,20.73
2017-12-21T01:48:56.035Z,20.43
2017-12-21T01:51:23.670Z,23.57
2017-12-21T01:53:51.289Z,19.70
2017-12-21T01:56:18.871Z,18.87
2017-12-21T01:58:46.660Z,17.17
2017-12-21T02:01:14.248Z,19.70
2017-12-21T02:03:41.879Z,19.40
2017-12-21T02:06:09.465Z,19.07
2017-12-21T02:08:37.082Z,16.13
2017-12-21T02:11:04.721Z,16.83
2017-12-21T02:13:32.323Z,17.00
2017-12-21T02:15:59.881Z,19.13
2017-12-21T02:18:28.361Z,15.47
2017-12-21T02:20:55.940Z,14.03
2017-12-21T02:23:24.337Z,14.43
2017-12-21T02:25:51.921Z,17.57
2017-12-21T02:28:19.562Z,17.67
2017-12-21T02:30:47.254Z,14.60
2017-12-21T02:33:14.828Z,11.00
2017-12-21T02:35:42.409Z,10.60
2017-12-21T02:38:10.082Z,14.13
2017-12-21T02:40:38.362Z,12.00
2017-12-21T02:43:06.776Z,11.17
2017-12-21T02:45:34.336Z,8.73
2017-12-21T02:48:01.935Z,10.27
2017-12-21T02:50:29.662Z,11.03
2017-12-21T02:52:57.305Z,12.57
2017-12-21T02:55:24.865Z,14.00
2017-12-21T02:57:52.469Z,14.00
2017-12-21T03:00:20.242Z,13.00
2017-12-21T03:02:47.841Z,14.63
2017-12-21T03:05:15.528Z,11.90
2017-12-21T03:07:43.207Z,10.57
2017-12-21T03:10:10.848Z,12.43
2017-12-21T03:12:38.422Z,14.17
2017-12-21T03:15:06.080Z,15.73
2017-12-21T03:17:33.636Z,12.13
2017-12-21T03:20:01.209Z,11.87
2017-12-21T03:22:28.786Z,17.73
2017-12-21T03:24:56.350Z,17.43
2017-12-21T03:27:23.966Z,25.00
2017-12-21T03:29:51.702Z,21.27
2017-12-21T03:32:19.328Z,16.83
2017-12-21T03:34:46.940Z,18.17
2017-12-21T03:37:14.520Z,21.00
2017-12-21T03:39:42.157Z,18.77
2017-12-21T03:42:10.630Z,14.37
2017-12-21T03:44:38.373Z,13.10
2017-12-21T03:47:05.996Z,17.07
2017-12-21T03:49:33.625Z,14.30
2017-12-21T03:52:02.036Z,15.40
2017-12-21T03:54:29.621Z,17.80
2017-12-21T03:56:57.238Z,15.20
2017-12-21T03:59:24.829Z,17.93
2017-12-21T04:01:52.416Z,17.23
2017-12-21T04:04:20.070Z,25.50
2017-12-21T04:06:47.673Z,18.30
2017-12-21T04:09:15.261Z,30.83
2017-12-21T04:11:42.839Z,20.87
2017-12-21T04:14:10.449Z,23.13
2017-12-21T04:16:38.613Z,19.67
2017-12-21T04:19:06.296Z,19.97
2017-12-21T04:21:34.022Z,19.00
2017-12-21T04:24:02.393Z,20.60
2017-12-21T04:26:30.024Z,25.27
2017-12-21T04:28:57.609Z,21.23
2017-12-21T04:31:25.796Z,20.73
2017-12-21T04:33:53.396Z,17.97
2017-12-21T04:36:20.955Z,22.37
2017-12-21T04:38:48.606Z,25.57
2017-12-21T04:41:17.003Z,17.43
2017-12-21T04:43:44.599Z,23.20
2017-12-21T04:46:12.182Z,25.47
2017-12-21T04:48:39.792Z,27.20
2017-12-21T04:51:07.434Z,16.07
2017-12-21T04:53:35.816Z,25.83
2017-12-21T04:56:03.402Z,22.40
2017-12-21T04:58:31.040Z,18.70
2017-12-21T05:00:58.659Z,27.83
2017-12-21T05:03:26.226Z,28.10
2017-12-21T05:05:54.655Z,25.47
2017-12-21T05:08:22.298Z,20.60
2017-12-21T05:10:50.708Z,35.23
2017-12-21T05:13:18.358Z,29.87
2017-12-21T05:15:45.969Z,32.40
2017-12-21T05:18:13.574Z,31.07
2017-12-21T05:20:41.194Z,40.17
2017-12-21T05:23:10.283Z,37.67
2017-12-21T05:25:38.550Z,33.17
2017-12-21T05:28:06.121Z,31.77
2017-12-21T05:30:35.334Z,33.87
2017-12-21T05:33:03.217Z,51.50
2017-12-21T05:35:30.827Z,28.77
2017-12-21T05:37:58.395Z,56.17
2017-12-21T05:40:26.356Z,38.27
2017-12-21T05:42:53.967Z,29.70
2017-12-21T05:45:21.575Z,33.10
2017-12-21T05:47:49.187Z,40.63
2017-12-21T05:50:16.889Z,30.90
2017-12-21T05:52:45.049Z,37.37
2017-12-21T05:55:13.054Z,32.63
2017-12-21T05:57:40.906Z,72.03
2017-12-21T06:00:08.525Z,82.70
2017-12-21T06:02:37.013Z,40.30
2017-12-21T06:05:04.572Z,39.30
2017-12-21T06:07:32.759Z,29.63
2017-12-21T06:10:00.397Z,26.33
2017-12-21T06:12:28.820Z,23.00
2017-12-21T06:14:56.462Z,29.17
2017-12-21T06:17:25.458Z,30.23
2017-12-21T06:19:53.063Z,21.43
2017-12-21T06:22:21.545Z,35.20
2017-12-21T06:24:49.163Z,20.97
2017-12-21T06:27:16.799Z,25.53
2017-12-21T06:29:45.485Z,21.13
2017-12-21T06:32:13.972Z,23.30
2017-12-21T06:34:41.615Z,30.70
2017-12-21T06:37:09.315Z,27.90
2017-12-21T06:39:36.911Z,26.17
2017-12-21T06:42:04.517Z,20.33
2017-12-21T06:44:32.173Z,26.37
2017-12-21T06:47:00.282Z,26.80
2017-12-21T06:49:27.910Z,20.37
2017-12-21T06:51:55.565Z,28.33
2017-12-21T06:54:23.129Z,25.03
2017-12-21T06:56:51.630Z,28.10
2017-12-21T06:59:19.692Z,25.03
2017-12-21T07:01:47.404Z,19.53
2017-12-21T07:04:14.990Z,25.07
2017-12-21T07:06:42.585Z,32.77
2017-12-21T07:09:10.202Z,26.60
2017-12-21T07:11:37.820Z,20.40
2017-12-21T07:14:05.805Z,27.30
2017-12-21T07:16:33.469Z,28.27
2017-12-21T07:19:02.145Z,22.77
2017-12-21T07:21:29.751Z,20.80
2017-12-21T07:23:57.516Z,24.93
2017-12-21T07:26:25.124Z,23.80
2017-12-21T07:28:52.715Z,18.40
2017-12-21T07:31:20.368Z,24.07
2017-12-21T07:33:47.958Z,30.33
2017-12-21T07:36:17.212Z,20.57
2017-12-21T07:38:44.840Z,20.60
2017-12-21T07:41:13.156Z,24.23
2017-12-21T07:43:40.727Z,23.47
2017-12-21T07:46:08.299Z,32.50
2017-12-21T07:48:37.895Z,24.97
2017-12-21T07:51:05.497Z,18.57
2017-12-21T07:53:33.145Z,36.20
2017-12-21T07:56:00.741Z,28.20
2017-12-21T07:58:28.433Z,33.10
2017-12-21T08:00:56.026Z,37.50
2017-12-21T08:03:23.665Z,25.73
2017-12-21T08:05:51.658Z,21.30
2017-12-21T08:08:19.538Z,33.77
2017-12-21T08:10:47.107Z,37.30
2017-12-21T08:13:14.722Z,21.73
2017-12-21T08:15:42.333Z,28.50
2017-12-21T08:18:10.618Z,47.50
2017-12-21T08:20:38.308Z,31.27
2017-12-21T08:23:05.940Z,29.17
2017-12-21T08:25:33.545Z,36.67
2017-12-21T08:28:01.552Z,32.57
2017-12-21T08:30:29.922Z,38.93
2017-12-21T08:32:57.527Z,36.03
2017-12-21T08:35:25.755Z,40.20
2017-12-21T08:37:53.512Z,33.37
2017-12-21T08:40:21.302Z,25.67
2017-12-21T08:42:48.911Z,37.53
2017-12-21T08:45:16.607Z,26.80
2017-12-21T08:47:44.265Z,35.87
2017-12-21T08:50:11.866Z,27.23
2017-12-21T08:52:39.631Z,25.40
2017-12-21T08:55:08.137Z,26.30
2017-12-21T08:57:36.472Z,21.37
2017-12-21T09:00:04.180Z,20.80
2017-12-21T09:02:32.115Z,21.27
2017-12-21T09:04:59.763Z,16.90
2017-12-21T09:07:27.370Z,27.07
2017-12-21T09:09:54.984Z,21.03
2017-12-21T09:12:22.573Z,23.00
2017-12-21T09:14:50.339Z,19.50
2017-12-21T09:17:18.004Z,16.33
2017-12-21T09:19:45.592Z,17.63
2017-12-21T09:22:13.222Z,20.57
2017-12-21T09:24:40.849Z,18.83
2017-12-21T09:27:08.451Z,21.60
2017-12-21T09:29:36.023Z,16.80
2017-12-21T09:32:03.709Z,19.03
2017-12-21T09:34:31.298Z,18.67
2017-12-21T09:36:59.653Z,16.77
2017-12-21T09:39:27.302Z,20.80
2017-12-21T09:41:55.727Z,15.40
2017-12-21T09:44:24.109Z,12.97
2017-12-21T09:46:51.698Z,13.90
2017-12-21T09:49:19.328Z,14.20
2017-12-21T09:51:46.987Z,14.20
2017-12-21T09:54:14.613Z,15.53
2017-12-21T09:56:42.249Z,13.67
2017-12-21T09:59:09.868Z,15.17
2017-12-21T10:01:37.425Z,14.60
2017-12-21T10:04:06.871Z,14.83
2017-12-21T10:06:34.507Z,12.70
2017-12-21T10:09:02.854Z,15.43
2017-12-21T10:11:30.440Z,10.77
2017-12-21T10:13:58.822Z,13.47
2017-12-21T10:16:27.542Z,12.87
2017-12-21T10:18:55.930Z,10.73
2017-12-21T10:21:24.332Z,11.23
2017-12-21T10:23:51.920Z,8.27
2017-12-21T10:26:20.295Z,10.03
2017-12-21T10:28:47.937Z,10.90
2017-12-21T10:31:15.548Z,8.97
2017-12-21T10:33:43.412Z,10.77
2017-12-21T10:36:11.163Z,8.93
2017-12-21T10:38:39.702Z,9.60
2017-12-21T10:41:07.487Z,10.07
2017-12-21T10:43:35.112Z,10.50
2017-12-21T10:46:02.693Z,8.90
2017-12-21T10:48:31.357Z,9.17
2017-12-21T10:50:58.916Z,10.27
2017-12-21T10:53:26.632Z,9.87
2017-12-21T10:55:55.076Z,8.33
2017-12-21T10:58:22.641Z,11.30
2017-12-21T11:00:50.250Z,8.70
2017-12-21T11:03:17.810Z,9.77
2017-12-21T11:05:45.684Z,10.10
2017-12-21T11:08:13.292Z,9.03
2017-12-21T11:10:40.869Z,9.37
2017-12-21T11:13:08.509Z,11.83
2017-12-21T11:15:36.062Z,9.00
2017-12-21T11:18:03.770Z,12.63
2017-12-21T11:20:31.432Z,11.97
2017-12-21T11:22:59.063Z,11.43
2017-12-21T11:25:26.694Z,9.73
2017-12-21T11:27:54.273Z,9.03
2017-12-21T11:30:22.036Z,9.43
2017-12-21T11:32:49.690Z,11.57
2017-12-21T11:35:17.514Z,9.30
2017-12-21T11:37:45.948Z,9.57
2017-12-21T11:40:13.530Z,13.20
2017-12-21T11:42:41.762Z,11.27
2017-12-21T11:45:09.468Z,13.20
2017-12-21T11:47:37.107Z,11.77
2017-12-21T11:50:05.086Z,11.83
2017-12-21T11:52:33.488Z,14.60
2017-12-21T11:55:01.239Z,11.90
2017-12-21T11:57:28.934Z,11.43
2017-12-21T11:59:56.762Z,13.23
2017-12-21T12:02:24.365Z,11.77
2017-12-21T12:04:52.255Z,13.53
2017-12-21T12:07:20.025Z,12.67
2017-12-21T12:09:47.660Z,14.50
2017-12-21T12:12:15.266Z,14.60
2017-12-21T12:14:43.698Z,15.40
2017-12-21T12:17:11.594Z,12.00
2017-12-21T12:19:39.207Z,16.27
2017-12-21T12:22:06.844Z,12.57
2017-12-21T12:24:34.578Z,14.43
2017-12-21T12:27:02.242Z,15.63
2017-12-21T12:29:29.903Z,14.90
2017-12-21T12:31:57.500Z,10.57
2017-12-21T12:34:25.167Z,12.67
2017-12-21T12:36:52.780Z,15.20
2017-12-21T12:39:20.361Z,14.40
2017-12-21T12:41:47.921Z,14.37
2017-12-21T12:44:15.596Z,15.63
2017-12-21T12:46:43.202Z,15.60
2017-12-21T12:49:10.800Z,13.67
2017-12-21T12:51:38.393Z,13.13
2017-12-21T12:54:06.008Z,13.43
2017-12-21T12:56:33.582Z,15.23
2017-12-21T12:59:01.154Z,13.47
2017-12-21T13:01:28.747Z,12.80
2017-12-21T13:03:56.494Z,13.17
2017-12-21T13:06:24.198Z,13.17
2017-12-21T13:08:51.835Z,15.50
2017-12-21T13:11:20.392Z,16.00
2017-12-21T13:13:48.152Z,13.10
2017-12-21T13:16:15.751Z,12.33
2017-12-21T13:18:43.335Z,13.63
2017-12-21T13:21:10.920Z,13.27
2017-12-21T13:23:38.534Z,14.30
2017-12-21T13:26:06.874Z,15.90
2017-12-21T13:28:34.447Z,15.00
2017-12-21T13:31:02.096Z,13.33
2017-12-21T13:33:29.744Z,12.70
2017-12-21T13:35:58.022Z,14.97
2017-12-21T13:38:25.781Z,12.53
2017-12-21T13:40:53.424Z,14.73
2017-12-21T13:43:21.036Z,14.17
2017-12-21T13:45:48.844Z,13.17
2017-12-21T13:48:16.464Z,12.87
2017-12-21T13:50:44.099Z,12.63
2017-12-21T13:53:11.697Z,11.53
2017-12-21T13:55:40.028Z,11.20
2017-12-21T13:58:07.665Z,11.50
2017-12-21T14:00:35.250Z,12.07
2017-12-21T14:03:02.843Z,12.67
2017-12-21T14:05:30.451Z,13.50
2017-12-21T14:07:58.447Z,14.97
2017-12-21T14:10:26.085Z,15.67
2017-12-21T14:12:54.453Z,15.83
2017-12-21T14:15:22.080Z,18.60
2017-12-21T14:17:49.676Z,11.60
2017-12-21T14:20:17.256Z,12.80
2017-12-21T14:22:44.860Z,14.00
2017-12-21T14:25:13.096Z,11.87
2017-12-21T14:27:41.994Z,14.70
2017-12-21T14:30:09.587Z,18.17
2017-12-21T14:32:37.276Z,14.60
2017-12-21T14:35:05.667Z,13.73
2017-12-21T14:37:34.493Z,16.70
2017-12-21T14:40:03.062Z,13.27
2017-12-21T14:42:30.669Z,12.60
2017-12-21T14:44:58.226Z,13.13
2017-12-21T14:47:25.844Z,12.20
2017-12-21T14:49:53.463Z,15.60
2017-12-21T14:52:21.999Z,13.13
2017-12-21T14:54:49.585Z,14.30
2017-12-21T14:57:17.193Z,14.43
2017-12-21T14:59:45.291Z,12.23
2017-12-21T15:02:13.029Z,14.57
2017-12-21T15:04:40.610Z,13.93
2017-12-21T15:07:08.485Z,12.57
2017-12-21T15:09:36.377Z,12.97
2017-12-21T15:12:04.002Z,12.73
2017-12-21T15:14:32.037Z,14.10
2017-12-21T15:17:00.424Z,14.30
2017-12-21T15:19:28.008Z,16.97
2017-12-21T15:21:55.579Z,20.63
2017-12-21T15:24:23.677Z,15.80
2017-12-21T15:26:51.303Z,14.07
2017-12-21T15:29:18.895Z,16.23
2017-12-21T15:31:46.479Z,15.33
2017-12-21T15:34:15.857Z,11.57
2017-12-21T15:36:43.430Z,18.77
2017-12-21T15:39:11.872Z,12.07
2017-12-21T15:41:39.571Z,15.93
2017-12-21T15:44:07.144Z,13.87
2017-12-21T15:46:34.791Z,17.73
2017-12-21T15:49:03.369Z,16.30
2017-12-21T15:51:31.573Z,14.90
2017-12-21T15:54:00.031Z,13.80
2017-12-21T15:56:27.675Z,13.87
2017-12-21T15:58:55.526Z,18.07
2017-12-21T16:01:23.143Z,22.53
2017-12-21T16:03:50.863Z,17.17
2017-12-21T16:06:18.494Z,12.50
2017-12-21T16:08:46.092Z,12.90
2017-12-21T16:11:13.699Z,14.87
2017-12-21T16:13:42.037Z,15.67
2017-12-21T16:16:09.681Z,18.00
2017-12-21T16:18:37.787Z,17.07
2017-12-21T16:21:06.208Z,15.63
2017-12-21T16:23:33.893Z,14.67
2017-12-21T16:26:01.511Z,17.57
2017-12-21T16:28:29.996Z,16.50
2017-12-21T16:30:58.368Z,15.40
2017-12-21T16:33:26.730Z,14.47
2017-12-21T16:35:54.396Z,14.27
2017-12-21T16:38:22.017Z,21.20
2017-12-21T16:40:49.733Z,19.57
2017-12-21T16:43:17.698Z,20.30
2017-12-21T16:45:45.349Z,19.43
2017-12-21T16:48:12.939Z,11.83
2017-12-21T16:50:41.340Z,13.30
2017-12-21T16:53:09.181Z,13.03
2017-12-21T16:55:36.929Z,13.70
2017-12-21T16:58:05.296Z,20.03
2017-12-21T17:00:32.982Z,14.13
2017-12-21T17:03:00.635Z,14.93
2017-12-21T17:05:28.250Z,14.30
2017-12-21T17:07:55.882Z,16.13
2017-12-21T17:10:24.129Z,14.97
2017-12-21T17:12:51.771Z,15.90
2017-12-21T17:15:19.350Z,16.33
2017-12-21T17:17:47.050Z,13.97
2017-12-21T17:20:14.622Z,16.07
2017-12-21T17:22:42.268Z,15.27
2017-12-21T17:25:10.053Z,41.77
2017-12-21T17:27:37.662Z,21.93
2017-12-21T17:30:05.270Z,14.67
2017-12-21T17:32:32.866Z,17.50
2017-12-21T17:35:00.430Z,15.70
2017-12-21T17:37:28.910Z,15.87
2017-12-21T17:39:56.464Z,15.23
2017-12-21T17:42:24.143Z,17.50
2017-12-21T17:44:52.732Z,13.43
2017-12-21T17:47:21.200Z,12.43
2017-12-21T17:49:49.690Z,13.53
2017-12-21T17:52:17.301Z,13.93
2017-12-21T17:54:44.869Z,12.13
2017-12-21T17:57:12.532Z,10.83
2017-12-21T17:59:40.117Z,10.13
2017-12-21T18:02:07.688Z,14.03
2017-12-21T18:04:35.246Z,12.93
2017-12-21T18:07:02.863Z,14.80
2017-12-21T18:09:30.502Z,14.13
2017-12-21T18:11:59.004Z,12.27
2017-12-21T18:14:26.645Z,13.53
2017-12-21T18:16:54.535Z,17.20
2017-12-21T18:19:22.170Z,14.37
2017-12-21T18:21:49.789Z,17.33
2017-12-21T18:24:18.027Z,13.23
2017-12-21T18:26:45.691Z,18.30
2017-12-21T18:29:13.498Z,17.13
2017-12-21T18:31:41.259Z,14.73
2017-12-21T18:34:08.834Z,13.67
2017-12-21T18:36:36.487Z,14.00
2017-12-21T18:39:04.148Z,12.97
2017-12-21T18:41:31.716Z,23.70
2017-12-21T18:43:59.430Z,22.23
2017-12-21T18:46:28.008Z,20.80
2017-12-21T18:48:55.603Z,15.17
2017-12-21T18:51:23.167Z,12.97
2017-12-21T18:53:51.036Z,15.23
2017-12-21T18:56:18.802Z,16.47
2017-12-21T18:58:46.448Z,20.00
2017-12-21T19:01:14.136Z,19.27
2017-12-21T19:03:42.547Z,20.23
2017-12-21T19:06:10.176Z,23.83
2017-12-21T19:08:37.915Z,27.90
2017-12-21T19:11:05.479Z,26.17
2017-12-21T19:13:33.074Z,22.40
2017-12-21T19:16:00.791Z,21.83
2017-12-21T19:18:28.387Z,25.23
2017-12-21T19:20:55.990Z,21.80
2017-12-21T19:23:23.597Z,18.00
2017-12-21T19:25:51.263Z,17.40
2017-12-21T19:28:18.870Z,23.07
2017-12-21T19:30:46.465Z,16.23
2017-12-21T19:33:14.161Z,20.80
2017-12-21T19:35:41.794Z,22.27
2017-12-21T19:38:09.418Z,15.00
2017-12-21T19:40:37.599Z,16.40
2017-12-21T19:43:05.210Z,15.27
2017-12-21T19:45:33.665Z,15.57
2017-12-21T19:48:01.277Z,16.87
2017-12-21T19:50:29.731Z,17.23
2017-12-21T19:52:57.402Z,13.33
2017-12-21T19:55:25.074Z,15.37
2017-12-21T19:57:53.419Z,15.47
2017-12-21T20:00:21.062Z,14.43
2017-12-21T20:02:49.170Z,16.33
2017-12-21T20:05:16.833Z,17.70
2017-12-21T20:07:44.737Z,19.03
2017-12-21T20:10:13.547Z,15.80
2017-12-21T20:12:41.210Z,17.20
2017-12-21T20:15:08.860Z,19.53
2017-12-21T20:17:36.445Z,25.73
2017-12-21T20:20:04.113Z,20.00
2017-12-21T20:22:31.723Z,18.57
2017-12-21T20:24:59.362Z,21.47
2017-12-21T20:27:27.027Z,22.03
2017-12-21T20:29:54.709Z,24.53
2017-12-21T20:32:22.307Z,21.07
2017-12-21T20:34:50.775Z,21.50
2017-12-21T20:37:18.375Z,21.70
2017-12-21T20:39:46.243Z,22.70
2017-12-21T20:42:13.820Z,24.83
2017-12-21T20:44:42.367Z,24.13
2017-12-21T20:47:10.017Z,24.53
2017-12-21T20:49:38.739Z,21.77
2017-12-21T20:52:06.331Z,24.37
2017-12-21T20:54:34.696Z,22.13
2017-12-21T20:57:02.271Z,24.63
2017-12-21T20:59:30.812Z,25.80
2017-12-21T21:01:58.397Z,28.07
2017-12-21T21:04:28.079Z,25.37
2017-12-21T21:06:55.691Z,26.33
2017-12-21T21:09:24.311Z,31.00
2017-12-21T21:11:51.964Z,32.10
2017-12-21T21:14:19.591Z,29.53
2017-12-21T21:16:47.682Z,28.80
2017-12-21T21:19:15.421Z,27.93
2017-12-21T21:21:43.139Z,30.20
2017-12-21T21:24:10.946Z,32.00
2017-12-21T21:26:38.541Z,30.00
2017-12-21T21:29:06.167Z,40.00
2017-12-21T21:31:33.816Z,36.43
2017-12-21T21:34:01.447Z,31.60
2017-12-21T21:36:29.110Z,38.87
2017-12-21T21:38:56.715Z,33.07
2017-12-21T21:41:25.109Z,31.13
2017-12-21T21:43:53.473Z,33.97
2017-12-21T21:46:21.135Z,37.10
2017-12-21T21:48:48.722Z,36.50
2017-12-21T21:51:16.287Z,38.47
2017-12-21T21:53:43.871Z,31.60
2017-12-21T21:56:11.487Z,37.23
2017-12-21T21:58:39.267Z,31.93
2017-12-21T22:01:07.066Z,34.53
2017-12-21T22:03:34.699Z,37.87
2017-12-21T22:06:03.116Z,34.97
2017-12-21T22:08:30.729Z,34.20
2017-12-21T22:10:58.299Z,37.17
2017-12-21T22:13:26.298Z,34.10
2017-12-21T22:15:53.928Z,34.57
2017-12-21T22:18:21.487Z,37.23
2017-12-21T22:20:49.320Z,34.03
2017-12-21T22:23:17.495Z,35.37
2017-12-21T22:25:45.089Z,30.23
2017-12-21T22:28:12.658Z,36.93
2017-12-21T22:30:40.266Z,33.57
2017-12-21T22:33:07.866Z,34.53
2017-12-21T22:35:35.632Z,33.60
2017-12-21T22:38:03.467Z,57.50
2017-12-21T22:40:31.177Z,33.10
2017-12-21T22:42:58.796Z,29.47
2017-12-21T22:45:26.434Z,32.53
2017-12-21T22:47:54.011Z,27.20
2017-12-21T22:50:21.911Z,31.13
2017-12-21T22:52:49.545Z,42.47
2017-12-21T22:55:17.143Z,26.17
2017-12-21T22:57:44.724Z,28.43
2017-12-21T23:00:12.329Z,29.43
2017-12-21T23:02:39.907Z,29.80
2017-12-21T23:05:08.876Z,27.03
2017-12-21T23:07:36.536Z,21.80
2017-12-21T23:10:04.137Z,32.77
2017-12-21T23:12:31.803Z,27.20
2017-12-21T23:14:59.377Z,27.17
2017-12-21T23:17:26.979Z,23.27
2017-12-21T23:19:54.670Z,25.30
2017-12-21T23:22:23.740Z,22.93
2017-12-21T23:24:51.324Z,23.70
2017-12-21T23:27:19.715Z,26.03
2017-12-21T23:29:47.283Z,25.50
2017-12-21T23:32:14.896Z,24.67
2017-12-21T23:34:42.472Z,22.27
2017-12-21T23:37:10.117Z,23.73
2017-12-21T23:39:37.701Z,25.73
2017-12-21T23:42:06.055Z,27.80
2017-12-21T23:44:33.635Z,23.67
2017-12-21T23:47:02.813Z,30.47
2017-12-21T23:49:30.414Z,23.00
2017-12-21T23:51:58.823Z,21.77
2017-12-21T23:54:26.398Z,20.70
2017-12-21T23:56:54.012Z,16.73
2017-12-21T23:59:22.628Z,19.73
